sensor_id;sensor_type;location;lat;lon;timestamp;P1;durP1;ratioP1;P2;durP2;ratioP2
65715;SDS011;63484;52.054;8.518;2023-01-10T00:03:32;8.55;;;3.40;;
65715;SDS011;63484;52.054;8.518;2023-01-10T00:08:32;6.82;;;2.72;;
65715;SDS011;63484;52.054;8.518;2023-01-10T00:13:33;6.95;;;2.42;;
65715;SDS011;63484;52.054;8.518;2023-01-10T00:18:33;5.22;;;2.35;;
65715;SDS011;63484;52.054;8.518;2023-01-10T00:23:33;4.85;;;1.92;;
65715;SDS011;63484;52.054;8.518;2023-01-10T00:28:34;5.55;;;1.73;;
65715;SDS011;63484;52.054;8.518;2023-01-10T00:33:35;4.85;;;1.50;;
65715;SDS011;63484;52.054;8.518;2023-01-10T00:38:36;7.20;;;1.80;;
65715;SDS011;63484;52.054;8.518;2023-01-10T00:43:36;5.72;;;1.90;;
65715;SDS011;63484;52.054;8.518;2023-01-10T00:48:55;5.60;;;1.77;;
65715;SDS011;63484;52.054;8.518;2023-01-10T00:53:56;6.15;;;1.90;;
65715;SDS011;63484;52.054;8.518;2023-01-10T00:58:56;4.60;;;1.88;;
65715;SDS011;63484;52.054;8.518;2023-01-10T01:03:57;6.57;;;2.15;;
65715;SDS011;63484;52.054;8.518;2023-01-10T01:08:58;4.82;;;1.88;;
65715;SDS011;63484;52.054;8.518;2023-01-10T01:13:58;7.78;;;2.20;;
65715;SDS011;63484;52.054;8.518;2023-01-10T01:18:59;8.35;;;2.28;;
65715;SDS011;63484;52.054;8.518;2023-01-10T01:23:59;11.25;;;2.60;;
65715;SDS011;63484;52.054;8.518;2023-01-10T01:28:59;6.18;;;2.65;;
65715;SDS011;63484;52.054;8.518;2023-01-10T01:34:00;11.80;;;3.33;;
65715;SDS011;63484;52.054;8.518;2023-01-10T01:39:00;13.57;;;3.88;;
65715;SDS011;63484;52.054;8.518;2023-01-10T01:44:05;8.45;;;3.70;;
65715;SDS011;63484;52.054;8.518;2023-01-10T01:49:18;6.13;;;3.38;;
65715;SDS011;63484;52.054;8.518;2023-01-10T01:54:20;12.60;;;4.43;;
65715;SDS011;63484;52.054;8.518;2023-01-10T01:59:22;11.55;;;4.40;;
65715;SDS011;63484;52.054;8.518;2023-01-10T02:04:28;11.02;;;4.43;;
65715;SDS011;63484;52.054;8.518;2023-01-10T02:09:48;11.60;;;4.88;;
65715;SDS011;63484;52.054;8.518;2023-01-10T02:14:51;15.77;;;6.10;;
65715;SDS011;63484;52.054;8.518;2023-01-10T02:19:53;18.90;;;6.60;;
65715;SDS011;63484;52.054;8.518;2023-01-10T02:35:43;19.33;;;6.95;;
65715;SDS011;63484;52.054;8.518;2023-01-10T02:46:36;26.13;;;6.70;;
65715;SDS011;63484;52.054;8.518;2023-01-10T02:51:38;19.15;;;6.10;;
65715;SDS011;63484;52.054;8.518;2023-01-10T03:02:21;24.20;;;6.72;;
65715;SDS011;63484;52.054;8.518;2023-01-10T03:07:43;23.25;;;6.63;;
65715;SDS011;63484;52.054;8.518;2023-01-10T03:13:06;21.33;;;5.82;;
65715;SDS011;63484;52.054;8.518;2023-01-10T03:18:19;17.02;;;5.75;;
65715;SDS011;63484;52.054;8.518;2023-01-10T03:23:23;20.73;;;5.45;;
65715;SDS011;63484;52.054;8.518;2023-01-10T03:28:40;18.17;;;5.30;;
65715;SDS011;63484;52.054;8.518;2023-01-10T03:33:47;12.32;;;4.60;;
65715;SDS011;63484;52.054;8.518;2023-01-10T03:38:50;14.75;;;4.43;;
65715;SDS011;63484;52.054;8.518;2023-01-10T03:44:30;18.60;;;5.28;;
65715;SDS011;63484;52.054;8.518;2023-01-10T03:49:45;19.25;;;5.00;;
65715;SDS011;63484;52.054;8.518;2023-01-10T03:54:48;14.70;;;4.55;;
65715;SDS011;63484;52.054;8.518;2023-01-10T03:59:49;17.65;;;4.32;;
65715;SDS011;63484;52.054;8.518;2023-01-10T04:04:52;17.17;;;4.43;;
65715;SDS011;63484;52.054;8.518;2023-01-10T04:09:53;20.90;;;4.68;;
65715;SDS011;63484;52.054;8.518;2023-01-10T04:14:53;14.80;;;4.53;;
65715;SDS011;63484;52.054;8.518;2023-01-10T04:19:54;16.75;;;4.68;;
65715;SDS011;63484;52.054;8.518;2023-01-10T04:24:54;15.30;;;4.72;;
65715;SDS011;63484;52.054;8.518;2023-01-10T04:29:54;13.05;;;4.05;;
65715;SDS011;63484;52.054;8.518;2023-01-10T04:34:55;14.07;;;4.03;;
65715;SDS011;63484;52.054;8.518;2023-01-10T04:39:55;15.60;;;4.05;;
65715;SDS011;63484;52.054;8.518;2023-01-10T04:44:55;22.10;;;4.68;;
65715;SDS011;63484;52.054;8.518;2023-01-10T04:49:56;17.27;;;4.43;;
65715;SDS011;63484;52.054;8.518;2023-01-10T04:54:56;22.50;;;4.30;;
65715;SDS011;63484;52.054;8.518;2023-01-10T04:59:56;14.80;;;4.65;;
65715;SDS011;63484;52.054;8.518;2023-01-10T05:04:57;20.25;;;5.15;;
65715;SDS011;63484;52.054;8.518;2023-01-10T05:09:57;19.77;;;5.07;;
65715;SDS011;63484;52.054;8.518;2023-01-10T05:14:57;14.18;;;5.20;;
65715;SDS011;63484;52.054;8.518;2023-01-10T05:19:58;16.00;;;4.60;;
65715;SDS011;63484;52.054;8.518;2023-01-10T05:24:58;18.48;;;5.13;;
65715;SDS011;63484;52.054;8.518;2023-01-10T05:29:58;17.58;;;5.10;;
65715;SDS011;63484;52.054;8.518;2023-01-10T05:34:59;14.30;;;4.72;;
65715;SDS011;63484;52.054;8.518;2023-01-10T05:39:59;20.40;;;4.88;;
65715;SDS011;63484;52.054;8.518;2023-01-10T05:44:59;16.40;;;5.03;;
65715;SDS011;63484;52.054;8.518;2023-01-10T05:50:00;19.20;;;4.80;;
65715;SDS011;63484;52.054;8.518;2023-01-10T05:55:00;17.83;;;5.35;;
65715;SDS011;63484;52.054;8.518;2023-01-10T06:00:01;20.80;;;5.45;;
65715;SDS011;63484;52.054;8.518;2023-01-10T06:05:11;20.27;;;5.88;;
65715;SDS011;63484;52.054;8.518;2023-01-10T06:10:11;19.40;;;5.90;;
65715;SDS011;63484;52.054;8.518;2023-01-10T06:15:12;22.25;;;6.40;;
65715;SDS011;63484;52.054;8.518;2023-01-10T06:20:12;14.65;;;5.50;;
65715;SDS011;63484;52.054;8.518;2023-01-10T06:25:13;24.35;;;7.70;;
65715;SDS011;63484;52.054;8.518;2023-01-10T06:30:13;19.77;;;7.15;;
65715;SDS011;63484;52.054;8.518;2023-01-10T06:35:14;17.63;;;6.32;;
65715;SDS011;63484;52.054;8.518;2023-01-10T06:40:16;19.05;;;6.65;;
65715;SDS011;63484;52.054;8.518;2023-01-10T06:45:16;18.17;;;7.28;;
65715;SDS011;63484;52.054;8.518;2023-01-10T06:50:17;25.02;;;7.45;;
65715;SDS011;63484;52.054;8.518;2023-01-10T06:55:17;17.75;;;6.95;;
65715;SDS011;63484;52.054;8.518;2023-01-10T07:00:18;21.23;;;7.32;;
65715;SDS011;63484;52.054;8.518;2023-01-10T07:05:19;22.15;;;7.70;;
65715;SDS011;63484;52.054;8.518;2023-01-10T07:10:20;23.40;;;7.70;;
65715;SDS011;63484;52.054;8.518;2023-01-10T07:15:20;21.80;;;7.85;;
65715;SDS011;63484;52.054;8.518;2023-01-10T07:20:21;20.35;;;8.35;;
65715;SDS011;63484;52.054;8.518;2023-01-10T07:25:21;28.00;;;8.75;;
65715;SDS011;63484;52.054;8.518;2023-01-10T07:30:23;19.20;;;7.97;;
65715;SDS011;63484;52.054;8.518;2023-01-10T07:35:24;27.20;;;8.88;;
65715;SDS011;63484;52.054;8.518;2023-01-10T07:40:25;25.75;;;8.60;;
65715;SDS011;63484;52.054;8.518;2023-01-10T07:45:26;25.45;;;8.90;;
65715;SDS011;63484;52.054;8.518;2023-01-10T07:50:29;29.58;;;9.57;;
65715;SDS011;63484;52.054;8.518;2023-01-10T07:55:31;25.73;;;8.90;;
65715;SDS011;63484;52.054;8.518;2023-01-10T08:00:34;22.23;;;9.13;;
65715;SDS011;63484;52.054;8.518;2023-01-10T08:05:34;28.95;;;8.48;;
65715;SDS011;63484;52.054;8.518;2023-01-10T08:10:35;23.67;;;8.15;;
65715;SDS011;63484;52.054;8.518;2023-01-10T08:15:36;21.73;;;7.63;;
65715;SDS011;63484;52.054;8.518;2023-01-10T08:20:36;24.55;;;7.65;;
65715;SDS011;63484;52.054;8.518;2023-01-10T08:25:36;27.95;;;8.02;;
65715;SDS011;63484;52.054;8.518;2023-01-10T08:30:37;18.63;;;7.65;;
65715;SDS011;63484;52.054;8.518;2023-01-10T08:35:38;31.02;;;7.32;;
65715;SDS011;63484;52.054;8.518;2023-01-10T08:40:40;22.65;;;6.90;;
65715;SDS011;63484;52.054;8.518;2023-01-10T08:45:40;31.52;;;8.55;;
65715;SDS011;63484;52.054;8.518;2023-01-10T08:50:41;23.92;;;7.90;;
65715;SDS011;63484;52.054;8.518;2023-01-10T08:55:41;23.98;;;8.25;;
65715;SDS011;63484;52.054;8.518;2023-01-10T09:00:41;27.08;;;7.80;;
65715;SDS011;63484;52.054;8.518;2023-01-10T09:05:44;23.98;;;7.15;;
65715;SDS011;63484;52.054;8.518;2023-01-10T09:10:44;20.67;;;6.75;;
65715;SDS011;63484;52.054;8.518;2023-01-10T09:15:44;21.60;;;6.78;;
65715;SDS011;63484;52.054;8.518;2023-01-10T09:20:45;26.48;;;6.72;;
65715;SDS011;63484;52.054;8.518;2023-01-10T09:25:46;19.05;;;6.15;;
65715;SDS011;63484;52.054;8.518;2023-01-10T09:30:47;32.38;;;6.80;;
65715;SDS011;63484;52.054;8.518;2023-01-10T09:35:47;20.73;;;6.43;;
65715;SDS011;63484;52.054;8.518;2023-01-10T09:51:42;28.60;;;5.97;;
65715;SDS011;63484;52.054;8.518;2023-01-10T09:56:45;27.30;;;7.38;;
65715;SDS011;63484;52.054;8.518;2023-01-10T10:01:46;27.02;;;6.47;;
65715;SDS011;63484;52.054;8.518;2023-01-10T10:06:51;27.33;;;7.05;;
65715;SDS011;63484;52.054;8.518;2023-01-10T10:11:59;24.08;;;7.35;;
65715;SDS011;63484;52.054;8.518;2023-01-10T10:17:15;23.37;;;6.73;;
65715;SDS011;63484;52.054;8.518;2023-01-10T10:33:13;27.77;;;6.68;;
65715;SDS011;63484;52.054;8.518;2023-01-10T10:38:19;32.30;;;6.80;;
65715;SDS011;63484;52.054;8.518;2023-01-10T10:43:33;25.88;;;6.32;;
65715;SDS011;63484;52.054;8.518;2023-01-10T10:48:41;27.08;;;6.53;;
65715;SDS011;63484;52.054;8.518;2023-01-10T10:53:47;18.67;;;5.80;;
65715;SDS011;63484;52.054;8.518;2023-01-10T10:58:49;26.35;;;6.90;;
65715;SDS011;63484;52.054;8.518;2023-01-10T11:04:05;28.17;;;6.10;;
65715;SDS011;63484;52.054;8.518;2023-01-10T11:09:10;24.92;;;5.88;;
65715;SDS011;63484;52.054;8.518;2023-01-10T11:14:13;26.30;;;6.75;;
65715;SDS011;63484;52.054;8.518;2023-01-10T11:19:21;23.85;;;6.57;;
65715;SDS011;63484;52.054;8.518;2023-01-10T11:24:27;24.98;;;7.03;;
65715;SDS011;63484;52.054;8.518;2023-01-10T11:29:41;29.45;;;6.63;;
65715;SDS011;63484;52.054;8.518;2023-01-10T11:34:54;29.30;;;6.18;;
65715;SDS011;63484;52.054;8.518;2023-01-10T11:50:23;31.52;;;6.15;;
65715;SDS011;63484;52.054;8.518;2023-01-10T11:55:29;20.00;;;6.05;;
65715;SDS011;63484;52.054;8.518;2023-01-10T12:00:44;23.20;;;5.97;;
65715;SDS011;63484;52.054;8.518;2023-01-10T12:05:49;29.50;;;6.45;;
65715;SDS011;63484;52.054;8.518;2023-01-10T12:10:58;25.50;;;5.30;;
65715;SDS011;63484;52.054;8.518;2023-01-10T12:21:37;19.85;;;4.25;;
65715;SDS011;63484;52.054;8.518;2023-01-10T12:26:39;28.88;;;4.30;;
65715;SDS011;63484;52.054;8.518;2023-01-10T12:31:41;19.25;;;4.32;;
65715;SDS011;63484;52.054;8.518;2023-01-10T12:36:53;19.15;;;3.92;;
65715;SDS011;63484;52.054;8.518;2023-01-10T12:52:44;19.35;;;3.50;;
65715;SDS011;63484;52.054;8.518;2023-01-10T12:57:49;12.95;;;3.40;;
65715;SDS011;63484;52.054;8.518;2023-01-10T13:02:53;22.92;;;4.20;;
65715;SDS011;63484;52.054;8.518;2023-01-10T13:08:02;21.77;;;4.00;;
65715;SDS011;63484;52.054;8.518;2023-01-10T13:18:24;22.33;;;3.72;;
65715;SDS011;63484;52.054;8.518;2023-01-10T13:23:30;27.10;;;5.57;;
65715;SDS011;63484;52.054;8.518;2023-01-10T13:28:32;23.30;;;3.72;;
65715;SDS011;63484;52.054;8.518;2023-01-10T13:33:37;19.60;;;4.35;;
65715;SDS011;63484;52.054;8.518;2023-01-10T13:38:59;26.08;;;4.68;;
65715;SDS011;63484;52.054;8.518;2023-01-10T13:44:03;15.57;;;5.50;;
65715;SDS011;63484;52.054;8.518;2023-01-10T13:49:20;21.67;;;4.13;;
65715;SDS011;63484;52.054;8.518;2023-01-10T13:54:24;18.83;;;3.80;;
65715;SDS011;63484;52.054;8.518;2023-01-10T14:04:51;16.40;;;3.53;;
65715;SDS011;63484;52.054;8.518;2023-01-10T14:09:59;21.20;;;3.05;;
65715;SDS011;63484;52.054;8.518;2023-01-10T14:15:06;25.23;;;3.13;;
65715;SDS011;63484;52.054;8.518;2023-01-10T14:20:20;14.52;;;2.90;;
65715;SDS011;63484;52.054;8.518;2023-01-10T14:25:22;13.63;;;2.83;;
65715;SDS011;63484;52.054;8.518;2023-01-10T14:30:30;17.55;;;3.40;;
65715;SDS011;63484;52.054;8.518;2023-01-10T14:35:33;25.67;;;5.15;;
65715;SDS011;63484;52.054;8.518;2023-01-10T14:40:39;13.75;;;4.57;;
65715;SDS011;63484;52.054;8.518;2023-01-10T14:51:05;19.05;;;3.17;;
65715;SDS011;63484;52.054;8.518;2023-01-10T15:01:36;18.70;;;2.72;;
65715;SDS011;63484;52.054;8.518;2023-01-10T15:06:50;13.50;;;2.05;;
65715;SDS011;63484;52.054;8.518;2023-01-10T15:11:50;16.83;;;2.42;;
65715;SDS011;63484;52.054;8.518;2023-01-10T15:16:53;15.25;;;2.10;;
65715;SDS011;63484;52.054;8.518;2023-01-10T15:21:59;17.33;;;1.98;;
65715;SDS011;63484;52.054;8.518;2023-01-10T15:27:04;13.60;;;2.67;;
65715;SDS011;63484;52.054;8.518;2023-01-10T15:32:12;21.40;;;2.58;;
65715;SDS011;63484;52.054;8.518;2023-01-10T15:37:23;12.90;;;2.67;;
65715;SDS011;63484;52.054;8.518;2023-01-10T15:42:26;20.92;;;3.25;;
65715;SDS011;63484;52.054;8.518;2023-01-10T15:52:50;17.00;;;2.53;;
65715;SDS011;63484;52.054;8.518;2023-01-10T15:58:03;10.30;;;2.65;;
65715;SDS011;63484;52.054;8.518;2023-01-10T16:03:12;16.90;;;3.80;;
65715;SDS011;63484;52.054;8.518;2023-01-10T16:08:17;13.73;;;2.63;;
65715;SDS011;63484;52.054;8.518;2023-01-10T16:13:22;12.65;;;2.28;;
65715;SDS011;63484;52.054;8.518;2023-01-10T16:18:26;15.30;;;3.13;;
65715;SDS011;63484;52.054;8.518;2023-01-10T16:23:33;16.75;;;3.03;;
65715;SDS011;63484;52.054;8.518;2023-01-10T16:28:35;14.20;;;2.63;;
65715;SDS011;63484;52.054;8.518;2023-01-10T16:33:36;14.85;;;2.72;;
65715;SDS011;63484;52.054;8.518;2023-01-10T16:38:37;20.35;;;3.28;;
65715;SDS011;63484;52.054;8.518;2023-01-10T16:43:37;18.10;;;2.20;;
65715;SDS011;63484;52.054;8.518;2023-01-10T16:48:38;8.13;;;2.15;;
65715;SDS011;63484;52.054;8.518;2023-01-10T16:53:38;12.13;;;2.60;;
65715;SDS011;63484;52.054;8.518;2023-01-10T16:58:38;12.73;;;2.78;;
65715;SDS011;63484;52.054;8.518;2023-01-10T17:03:39;17.70;;;2.88;;
65715;SDS011;63484;52.054;8.518;2023-01-10T17:08:40;13.63;;;1.88;;
65715;SDS011;63484;52.054;8.518;2023-01-10T17:13:42;12.15;;;2.20;;
65715;SDS011;63484;52.054;8.518;2023-01-10T17:18:44;17.52;;;2.08;;
65715;SDS011;63484;52.054;8.518;2023-01-10T17:23:44;9.75;;;1.58;;
65715;SDS011;63484;52.054;8.518;2023-01-10T17:28:45;11.88;;;2.33;;
65715;SDS011;63484;52.054;8.518;2023-01-10T17:33:48;11.52;;;2.22;;
65715;SDS011;63484;52.054;8.518;2023-01-10T17:38:48;15.02;;;2.50;;
65715;SDS011;63484;52.054;8.518;2023-01-10T17:43:49;11.10;;;2.40;;
65715;SDS011;63484;52.054;8.518;2023-01-10T17:48:49;10.75;;;2.05;;
65715;SDS011;63484;52.054;8.518;2023-01-10T17:53:49;15.23;;;2.03;;
65715;SDS011;63484;52.054;8.518;2023-01-10T17:58:50;7.95;;;1.77;;
65715;SDS011;63484;52.054;8.518;2023-01-10T18:03:52;13.07;;;2.20;;
65715;SDS011;63484;52.054;8.518;2023-01-10T18:08:52;21.42;;;3.17;;
65715;SDS011;63484;52.054;8.518;2023-01-10T18:13:56;12.38;;;2.22;;
65715;SDS011;63484;52.054;8.518;2023-01-10T18:18:56;9.18;;;1.83;;
65715;SDS011;63484;52.054;8.518;2023-01-10T18:23:56;12.07;;;2.05;;
65715;SDS011;63484;52.054;8.518;2023-01-10T18:29:00;9.90;;;1.98;;
65715;SDS011;63484;52.054;8.518;2023-01-10T18:34:00;11.07;;;1.98;;
65715;SDS011;63484;52.054;8.518;2023-01-10T18:39:01;11.02;;;1.90;;
65715;SDS011;63484;52.054;8.518;2023-01-10T18:44:02;18.67;;;3.53;;
65715;SDS011;63484;52.054;8.518;2023-01-10T18:49:03;13.40;;;2.00;;
65715;SDS011;63484;52.054;8.518;2023-01-10T18:54:04;12.18;;;2.30;;
65715;SDS011;63484;52.054;8.518;2023-01-10T18:59:05;13.77;;;2.33;;
65715;SDS011;63484;52.054;8.518;2023-01-10T19:04:06;9.57;;;1.88;;
65715;SDS011;63484;52.054;8.518;2023-01-10T19:09:06;15.15;;;2.42;;
65715;SDS011;63484;52.054;8.518;2023-01-10T19:14:07;12.50;;;2.47;;
65715;SDS011;63484;52.054;8.518;2023-01-10T19:19:07;9.23;;;2.30;;
65715;SDS011;63484;52.054;8.518;2023-01-10T19:24:14;10.95;;;1.90;;
65715;SDS011;63484;52.054;8.518;2023-01-10T19:29:20;21.17;;;2.85;;
65715;SDS011;63484;52.054;8.518;2023-01-10T19:34:21;15.30;;;2.08;;
65715;SDS011;63484;52.054;8.518;2023-01-10T19:39:21;12.10;;;2.45;;
65715;SDS011;63484;52.054;8.518;2023-01-10T19:44:22;12.68;;;2.25;;
65715;SDS011;63484;52.054;8.518;2023-01-10T19:49:22;10.18;;;2.47;;
65715;SDS011;63484;52.054;8.518;2023-01-10T19:54:23;10.85;;;2.33;;
65715;SDS011;63484;52.054;8.518;2023-01-10T19:59:24;14.23;;;2.33;;
65715;SDS011;63484;52.054;8.518;2023-01-10T20:04:25;15.82;;;3.63;;
65715;SDS011;63484;52.054;8.518;2023-01-10T20:09:26;10.48;;;2.40;;
65715;SDS011;63484;52.054;8.518;2023-01-10T20:14:27;12.73;;;3.03;;
65715;SDS011;63484;52.054;8.518;2023-01-10T20:19:27;7.35;;;2.97;;
65715;SDS011;63484;52.054;8.518;2023-01-10T20:24:27;9.02;;;2.35;;
65715;SDS011;63484;52.054;8.518;2023-01-10T20:29:28;13.90;;;5.25;;
65715;SDS011;63484;52.054;8.518;2023-01-10T20:34:28;9.73;;;2.90;;
65715;SDS011;63484;52.054;8.518;2023-01-10T20:39:28;8.45;;;2.38;;
65715;SDS011;63484;52.054;8.518;2023-01-10T20:44:30;9.40;;;2.33;;
65715;SDS011;63484;52.054;8.518;2023-01-10T20:49:30;13.85;;;5.10;;
65715;SDS011;63484;52.054;8.518;2023-01-10T20:54:31;10.48;;;2.50;;
65715;SDS011;63484;52.054;8.518;2023-01-10T20:59:33;12.18;;;3.05;;
65715;SDS011;63484;52.054;8.518;2023-01-10T21:04:34;8.57;;;2.53;;
65715;SDS011;63484;52.054;8.518;2023-01-10T21:09:34;6.45;;;1.98;;
65715;SDS011;63484;52.054;8.518;2023-01-10T21:14:34;3.92;;;1.48;;
65715;SDS011;63484;52.054;8.518;2023-01-10T21:19:35;5.85;;;1.50;;
65715;SDS011;63484;52.054;8.518;2023-01-10T21:24:35;3.10;;;1.30;;
65715;SDS011;63484;52.054;8.518;2023-01-10T21:29:36;5.32;;;1.35;;
65715;SDS011;63484;52.054;8.518;2023-01-10T21:34:36;5.00;;;1.27;;
65715;SDS011;63484;52.054;8.518;2023-01-10T21:39:37;2.45;;;1.10;;
65715;SDS011;63484;52.054;8.518;2023-01-10T21:44:37;3.33;;;0.95;;
65715;SDS011;63484;52.054;8.518;2023-01-10T21:49:37;3.83;;;1.15;;
65715;SDS011;63484;52.054;8.518;2023-01-10T21:54:37;1.85;;;0.70;;
65715;SDS011;63484;52.054;8.518;2023-01-10T21:59:38;3.33;;;0.90;;
65715;SDS011;63484;52.054;8.518;2023-01-10T22:04:43;4.78;;;2.70;;
65715;SDS011;63484;52.054;8.518;2023-01-10T22:09:44;3.85;;;1.65;;
65715;SDS011;63484;52.054;8.518;2023-01-10T22:14:45;2.85;;;1.45;;
65715;SDS011;63484;52.054;8.518;2023-01-10T22:19:46;3.60;;;0.80;;
65715;SDS011;63484;52.054;8.518;2023-01-10T22:24:46;3.85;;;0.65;;
65715;SDS011;63484;52.054;8.518;2023-01-10T22:30:45;3.83;;;0.85;;
65715;SDS011;63484;52.054;8.518;2023-01-10T22:35:46;3.65;;;0.80;;
65715;SDS011;63484;52.054;8.518;2023-01-10T22:40:48;2.47;;;0.82;;
65715;SDS011;63484;52.054;8.518;2023-01-10T22:45:51;2.13;;;0.70;;
65715;SDS011;63484;52.054;8.518;2023-01-10T22:50:54;1.52;;;0.60;;
65715;SDS011;63484;52.054;8.518;2023-01-10T22:55:57;3.05;;;0.70;;
65715;SDS011;63484;52.054;8.518;2023-01-10T23:01:02;1.13;;;0.60;;
65715;SDS011;63484;52.054;8.518;2023-01-10T23:06:05;1.27;;;0.70;;
65715;SDS011;63484;52.054;8.518;2023-01-10T23:11:07;1.15;;;0.60;;
65715;SDS011;63484;52.054;8.518;2023-01-10T23:16:11;2.50;;;0.70;;
65715;SDS011;63484;52.054;8.518;2023-01-10T23:21:15;2.95;;;0.40;;
65715;SDS011;63484;52.054;8.518;2023-01-10T23:26:17;1.15;;;0.40;;
65715;SDS011;63484;52.054;8.518;2023-01-10T23:31:20;1.92;;;0.47;;
65715;SDS011;63484;52.054;8.518;2023-01-10T23:36:23;1.08;;;0.50;;
65715;SDS011;63484;52.054;8.518;2023-01-10T23:41:25;2.38;;;0.60;;
65715;SDS011;63484;52.054;8.518;2023-01-10T23:46:28;4.22;;;1.23;;
65715;SDS011;63484;52.054;8.518;2023-01-10T23:51:29;3.05;;;0.60;;
65715;SDS011;63484;52.054;8.518;2023-01-10T23:56:31;3.45;;;1.00;;
